Jack Robertson — WDE5993 — position and weather

sailwx.info

Track history (hours):
 
Tides and Currents Weather Stations Pressure Air Temp Water Temp Dewpoint Dewpoint Depression Visibility Wind Speed Wind Dir Waves Ship Positions

Oceanographic research ship Jack Robertson (United States)

Owner: University of Washington Applied Physics Laboratory, Seattle, WA. More information available from US FCC via Universal Licensing System and Coast Guard Vessel Documentation Center.

Last reported at 2020-Sep-25 20:30 UTC. Time now 2020-Sep-27 07:10 UTC.
Position N 47°39' W 122°19'.

; draft 1.7 m.

Type: Other ship. MMSI: 367374350.

Date/timePositionNaut miles runAvg speedWind from/ knotsBaromVisibWave heightAir tempDewpointWater temp
2020-Sep-25 20:30N 47°39' W 122°19'2 2.3
2020-Sep-25 19:30N 47°39' W 122°16'35 6.9
2020-Sep-25 14:30N 48°08' W 122°44'4 8.5
2020-Sep-25 14:00N 48°09' W 122°50'5 9.1
2020-Sep-25 13:30N 48°07' W 122°56'4 0.2
2020-Sep-24 17:00N 48°04' W 123°01'0 0.4
2020-Sep-24 16:00N 48°04' W 123°02'0 0.5
2020-Sep-24 15:30N 48°04' W 123°02'1 0.5
2020-Sep-24 14:00N 48°04' W 123°02'0 0.0
2020-Sep-24 01:38N 48°04' W 123°02'1 0.2
2020-Sep-23 21:30N 48°04' W 123°02'0 0.2
2020-Sep-23 20:00N 48°05' W 123°02'0 0.6
2020-Sep-23 19:25N 48°04' W 123°02'0 6.0
2020-Sep-23 19:24N 48°04' W 123°02'0 1.2
2020-Sep-23 19:01N 48°05' W 123°02'0 0.0
2020-Sep-22 23:01N 48°04' W 123°02'0 0.1
2020-Sep-22 16:30N 48°04' W 123°01'1 1.3
2020-Sep-22 16:00N 48°04' W 123°02'0 1.0
2020-Sep-22 15:31N 48°04' W 123°02'0 0.0
2020-Sep-21 23:00N 48°05' W 123°01'1 0.6
2020-Sep-21 22:01N 48°04' W 123°02'0 0.9
2020-Sep-21 21:30N 48°05' W 123°02'1 0.5
2020-Sep-21 20:31N 48°04' W 123°02'0 0.1
2020-Sep-21 17:30N 48°04' W 123°02'0 0.2
2020-Sep-21 16:00N 48°04' W 123°01'1 0.1
2020-Sep-20 23:04N 48°04' W 123°02'21 5.8
2020-Sep-20 19:30N 47°56' W 122°34'510.0
2020-Sep-20 19:00N 47°53' W 122°29'9 9.3
2020-Sep-20 18:01N 47°44' W 122°26'4 7.5
2020-Sep-20 17:29N 47°40' W 122°24'2 5.0
2020-Sep-20 17:00N 47°39' W 122°21'1 2.3
2020-Sep-20 16:30N 47°39' W 122°19'  
Track history (hours):
 
Tides and Currents Weather Stations Pressure Air Temp Water Temp Dewpoint Dewpoint Depression Visibility Wind Speed Wind Dir Waves Ship Positions

Oceanographic research ship Jack Robertson (United States)

Owner: University of Washington Applied Physics Laboratory, Seattle, WA. More information available from US FCC via Universal Licensing System and Coast Guard Vessel Documentation Center.

Last reported at 2020-Sep-25 20:30 UTC. Time now 2020-Sep-27 07:10 UTC.
Position N 47°39' W 122°19'.

; draft 1.7 m.

Type: Other ship. MMSI: 367374350.

Date/timePositionNaut miles runAvg speedWind from/ knotsBaromVisibWave heightAir tempDewpointWater temp
2020-Sep-25 20:30N 47°39' W 122°19'2 2.3
2020-Sep-25 19:30N 47°39' W 122°16'35 6.9
2020-Sep-25 14:30N 48°08' W 122°44'4 8.5
2020-Sep-25 14:00N 48°09' W 122°50'5 9.1
2020-Sep-25 13:30N 48°07' W 122°56'4 0.2
2020-Sep-24 17:00N 48°04' W 123°01'0 0.4
2020-Sep-24 16:00N 48°04' W 123°02'0 0.5
2020-Sep-24 15:30N 48°04' W 123°02'1 0.5
2020-Sep-24 14:00N 48°04' W 123°02'0 0.0
2020-Sep-24 01:38N 48°04' W 123°02'1 0.2
2020-Sep-23 21:30N 48°04' W 123°02'0 0.2
2020-Sep-23 20:00N 48°05' W 123°02'0 0.6
2020-Sep-23 19:25N 48°04' W 123°02'0 6.0
2020-Sep-23 19:24N 48°04' W 123°02'0 1.2
2020-Sep-23 19:01N 48°05' W 123°02'0 0.0
2020-Sep-22 23:01N 48°04' W 123°02'0 0.1
2020-Sep-22 16:30N 48°04' W 123°01'1 1.3
2020-Sep-22 16:00N 48°04' W 123°02'0 1.0
2020-Sep-22 15:31N 48°04' W 123°02'0 0.0
2020-Sep-21 23:00N 48°05' W 123°01'1 0.6
2020-Sep-21 22:01N 48°04' W 123°02'0 0.9
2020-Sep-21 21:30N 48°05' W 123°02'1 0.5
2020-Sep-21 20:31N 48°04' W 123°02'0 0.1
2020-Sep-21 17:30N 48°04' W 123°02'0 0.2
2020-Sep-21 16:00N 48°04' W 123°01'1 0.1
2020-Sep-20 23:04N 48°04' W 123°02'21 5.8
2020-Sep-20 19:30N 47°56' W 122°34'510.0
2020-Sep-20 19:00N 47°53' W 122°29'9 9.3
2020-Sep-20 18:01N 47°44' W 122°26'4 7.5
2020-Sep-20 17:29N 47°40' W 122°24'2 5.0
2020-Sep-20 17:00N 47°39' W 122°21'1 2.3
2020-Sep-20 16:30N 47°39' W 122°19'  

Dump ship's entire track history